sensor_id;sensor_type;location;lat;lon;timestamp;temperature;humidity
37806;DHT22;25082;50.870;0.022;2023-12-28T00:00:28;19.30;66.60
37806;DHT22;25082;50.870;0.022;2023-12-28T00:02:54;19.30;66.60
37806;DHT22;25082;50.870;0.022;2023-12-28T00:05:19;19.30;66.60
37806;DHT22;25082;50.870;0.022;2023-12-28T00:07:45;19.30;66.60
37806;DHT22;25082;50.870;0.022;2023-12-28T00:10:11;19.20;66.50
37806;DHT22;25082;50.870;0.022;2023-12-28T00:12:37;19.20;66.50
37806;DHT22;25082;50.870;0.022;2023-12-28T00:15:02;19.20;66.60
37806;DHT22;25082;50.870;0.022;2023-12-28T00:17:28;19.30;66.60
37806;DHT22;25082;50.870;0.022;2023-12-28T00:19:54;19.20;66.50
37806;DHT22;25082;50.870;0.022;2023-12-28T00:22:20;19.20;66.60
37806;DHT22;25082;50.870;0.022;2023-12-28T00:24:46;19.20;66.60
37806;DHT22;25082;50.870;0.022;2023-12-28T00:27:11;19.20;66.60
37806;DHT22;25082;50.870;0.022;2023-12-28T00:29:37;19.20;66.60
37806;DHT22;25082;50.870;0.022;2023-12-28T00:32:07;19.20;66.60
37806;DHT22;25082;50.870;0.022;2023-12-28T00:34:32;19.20;66.60
37806;DHT22;25082;50.870;0.022;2023-12-28T00:36:58;19.20;66.70
37806;DHT22;25082;50.870;0.022;2023-12-28T00:39:24;19.20;66.70
37806;DHT22;25082;50.870;0.022;2023-12-28T00:41:50;19.20;66.60
37806;DHT22;25082;50.870;0.022;2023-12-28T00:44:15;19.10;66.70
37806;DHT22;25082;50.870;0.022;2023-12-28T00:46:41;19.10;66.70
37806;DHT22;25082;50.870;0.022;2023-12-28T00:49:07;19.10;66.70
37806;DHT22;25082;50.870;0.022;2023-12-28T00:51:34;19.10;66.70
37806;DHT22;25082;50.870;0.022;2023-12-28T00:53:59;19.10;66.80
37806;DHT22;25082;50.870;0.022;2023-12-28T00:56:25;19.10;66.80
37806;DHT22;25082;50.870;0.022;2023-12-28T00:58:51;19.10;66.80
37806;DHT22;25082;50.870;0.022;2023-12-28T01:01:17;19.10;66.80
37806;DHT22;25082;50.870;0.022;2023-12-28T01:03:43;19.10;66.80
37806;DHT22;25082;50.870;0.022;2023-12-28T01:06:08;19.10;66.80
37806;DHT22;25082;50.870;0.022;2023-12-28T01:08:34;19.00;66.70
37806;DHT22;25082;50.870;0.022;2023-12-28T01:11:01;19.00;66.70
37806;DHT22;25082;50.870;0.022;2023-12-28T01:13:28;19.00;66.60
37806;DHT22;25082;50.870;0.022;2023-12-28T01:15:54;19.00;66.70
37806;DHT22;25082;50.870;0.022;2023-12-28T01:18:20;19.00;66.70
37806;DHT22;25082;50.870;0.022;2023-12-28T01:20:46;19.00;66.60
37806;DHT22;25082;50.870;0.022;2023-12-28T01:23:11;19.00;66.70
37806;DHT22;25082;50.870;0.022;2023-12-28T01:25:37;19.00;67.30
37806;DHT22;25082;50.870;0.022;2023-12-28T01:28:03;19.00;66.80
37806;DHT22;25082;50.870;0.022;2023-12-28T01:30:30;19.00;66.70
37806;DHT22;25082;50.870;0.022;2023-12-28T01:32:56;19.00;66.80
37806;DHT22;25082;50.870;0.022;2023-12-28T01:35:22;19.00;66.60
37806;DHT22;25082;50.870;0.022;2023-12-28T01:37:47;19.00;66.60
37806;DHT22;25082;50.870;0.022;2023-12-28T01:40:15;19.00;66.70
37806;DHT22;25082;50.870;0.022;2023-12-28T01:42:41;18.90;66.50
37806;DHT22;25082;50.870;0.022;2023-12-28T01:45:07;18.90;66.50
37806;DHT22;25082;50.870;0.022;2023-12-28T01:47:34;18.90;66.60
37806;DHT22;25082;50.870;0.022;2023-12-28T01:50:00;18.90;66.60
37806;DHT22;25082;50.870;0.022;2023-12-28T01:52:26;18.90;66.60
37806;DHT22;25082;50.870;0.022;2023-12-28T01:54:54;18.90;66.50
37806;DHT22;25082;50.870;0.022;2023-12-28T01:57:20;18.90;66.50
37806;DHT22;25082;50.870;0.022;2023-12-28T01:59:46;18.90;66.50
37806;DHT22;25082;50.870;0.022;2023-12-28T02:02:13;18.90;66.50
37806;DHT22;25082;50.870;0.022;2023-12-28T02:04:39;18.90;66.50
37806;DHT22;25082;50.870;0.022;2023-12-28T02:07:05;18.90;66.60
37806;DHT22;25082;50.870;0.022;2023-12-28T02:09:32;18.90;66.60
37806;DHT22;25082;50.870;0.022;2023-12-28T02:11:58;18.80;66.50
37806;DHT22;25082;50.870;0.022;2023-12-28T02:14:23;18.80;66.60
37806;DHT22;25082;50.870;0.022;2023-12-28T02:17:03;18.80;66.50
37806;DHT22;25082;50.870;0.022;2023-12-28T02:19:45;18.80;66.50
37806;DHT22;25082;50.870;0.022;2023-12-28T02:22:14;18.80;66.60
37806;DHT22;25082;50.870;0.022;2023-12-28T02:25:10;18.80;66.50
37806;DHT22;25082;50.870;0.022;2023-12-28T02:27:58;18.80;66.50
37806;DHT22;25082;50.870;0.022;2023-12-28T02:30:24;18.80;66.50
37806;DHT22;25082;50.870;0.022;2023-12-28T02:33:07;18.80;66.50
37806;DHT22;25082;50.870;0.022;2023-12-28T02:35:42;18.80;66.60
37806;DHT22;25082;50.870;0.022;2023-12-28T02:38:13;18.70;66.50
37806;DHT22;25082;50.870;0.022;2023-12-28T02:40:42;18.80;66.50
37806;DHT22;25082;50.870;0.022;2023-12-28T02:43:11;18.70;66.50
37806;DHT22;25082;50.870;0.022;2023-12-28T02:45:38;18.80;66.50
37806;DHT22;25082;50.870;0.022;2023-12-28T02:48:05;18.80;66.60
37806;DHT22;25082;50.870;0.022;2023-12-28T02:50:32;18.80;66.60
37806;DHT22;25082;50.870;0.022;2023-12-28T02:52:58;18.70;66.50
37806;DHT22;25082;50.870;0.022;2023-12-28T02:55:24;18.70;66.60
37806;DHT22;25082;50.870;0.022;2023-12-28T02:57:50;18.70;66.50
37806;DHT22;25082;50.870;0.022;2023-12-28T03:00:16;18.70;66.50
37806;DHT22;25082;50.870;0.022;2023-12-28T03:02:42;18.70;66.50
37806;DHT22;25082;50.870;0.022;2023-12-28T03:05:08;18.70;66.50
37806;DHT22;25082;50.870;0.022;2023-12-28T03:07:35;18.70;67.10
37806;DHT22;25082;50.870;0.022;2023-12-28T03:10:01;18.70;66.60
37806;DHT22;25082;50.870;0.022;2023-12-28T03:12:29;18.70;66.50
37806;DHT22;25082;50.870;0.022;2023-12-28T03:14:55;18.70;66.50
37806;DHT22;25082;50.870;0.022;2023-12-28T03:17:21;18.70;66.50
37806;DHT22;25082;50.870;0.022;2023-12-28T03:19:46;18.70;66.60
37806;DHT22;25082;50.870;0.022;2023-12-28T03:22:12;18.60;66.50
37806;DHT22;25082;50.870;0.022;2023-12-28T03:24:38;18.70;66.60
37806;DHT22;25082;50.870;0.022;2023-12-28T03:27:04;18.70;66.50
37806;DHT22;25082;50.870;0.022;2023-12-28T03:29:30;18.60;66.60
37806;DHT22;25082;50.870;0.022;2023-12-28T03:31:56;18.60;66.60
37806;DHT22;25082;50.870;0.022;2023-12-28T03:34:23;18.60;66.60
37806;DHT22;25082;50.870;0.022;2023-12-28T03:36:49;18.60;66.60
37806;DHT22;25082;50.870;0.022;2023-12-28T03:39:15;18.60;66.60
37806;DHT22;25082;50.870;0.022;2023-12-28T03:41:41;18.60;66.60
37806;DHT22;25082;50.870;0.022;2023-12-28T03:44:07;18.60;66.60
37806;DHT22;25082;50.870;0.022;2023-12-28T03:46:32;18.60;66.60
37806;DHT22;25082;50.870;0.022;2023-12-28T03:48:58;18.60;66.60
37806;DHT22;25082;50.870;0.022;2023-12-28T03:51:24;18.60;66.60
37806;DHT22;25082;50.870;0.022;2023-12-28T03:53:50;18.60;66.60
37806;DHT22;25082;50.870;0.022;2023-12-28T03:56:23;18.60;66.60
37806;DHT22;25082;50.870;0.022;2023-12-28T03:58:49;18.60;66.60
37806;DHT22;25082;50.870;0.022;2023-12-28T04:01:17;18.60;66.60
37806;DHT22;25082;50.870;0.022;2023-12-28T04:03:43;18.60;66.60
37806;DHT22;25082;50.870;0.022;2023-12-28T04:06:09;18.60;66.60
37806;DHT22;25082;50.870;0.022;2023-12-28T04:08:35;18.60;66.60
37806;DHT22;25082;50.870;0.022;2023-12-28T04:11:00;18.60;66.60
37806;DHT22;25082;50.870;0.022;2023-12-28T04:13:26;18.60;66.60
37806;DHT22;25082;50.870;0.022;2023-12-28T04:15:52;18.50;66.60
37806;DHT22;25082;50.870;0.022;2023-12-28T04:18:18;18.50;66.70
37806;DHT22;25082;50.870;0.022;2023-12-28T04:20:43;18.60;66.70
37806;DHT22;25082;50.870;0.022;2023-12-28T04:23:12;18.50;66.60
37806;DHT22;25082;50.870;0.022;2023-12-28T04:25:38;18.50;66.60
37806;DHT22;25082;50.870;0.022;2023-12-28T04:28:03;18.50;66.70
37806;DHT22;25082;50.870;0.022;2023-12-28T04:30:29;18.50;66.60
37806;DHT22;25082;50.870;0.022;2023-12-28T04:32:55;18.50;66.70
37806;DHT22;25082;50.870;0.022;2023-12-28T04:35:20;18.50;66.60
37806;DHT22;25082;50.870;0.022;2023-12-28T04:37:46;18.50;66.70
37806;DHT22;25082;50.870;0.022;2023-12-28T04:40:12;18.50;66.70
37806;DHT22;25082;50.870;0.022;2023-12-28T04:42:40;18.50;66.70
37806;DHT22;25082;50.870;0.022;2023-12-28T04:45:06;18.50;66.70
37806;DHT22;25082;50.870;0.022;2023-12-28T04:47:32;18.50;66.70
37806;DHT22;25082;50.870;0.022;2023-12-28T04:49:58;18.50;66.70
37806;DHT22;25082;50.870;0.022;2023-12-28T04:52:24;18.50;66.70
37806;DHT22;25082;50.870;0.022;2023-12-28T04:54:50;18.40;66.60
37806;DHT22;25082;50.870;0.022;2023-12-28T04:57:16;18.40;66.60
37806;DHT22;25082;50.870;0.022;2023-12-28T04:59:42;18.40;66.60
37806;DHT22;25082;50.870;0.022;2023-12-28T05:02:08;18.40;66.60
37806;DHT22;25082;50.870;0.022;2023-12-28T05:04:36;18.40;66.60
37806;DHT22;25082;50.870;0.022;2023-12-28T05:07:04;18.40;66.70
37806;DHT22;25082;50.870;0.022;2023-12-28T05:09:30;18.40;66.60
37806;DHT22;25082;50.870;0.022;2023-12-28T05:11:56;18.40;66.70
37806;DHT22;25082;50.870;0.022;2023-12-28T05:14:22;18.40;66.70
37806;DHT22;25082;50.870;0.022;2023-12-28T05:16:48;18.40;66.70
37806;DHT22;25082;50.870;0.022;2023-12-28T05:19:14;18.40;66.70
37806;DHT22;25082;50.870;0.022;2023-12-28T05:21:40;18.50;66.80
37806;DHT22;25082;50.870;0.022;2023-12-28T05:24:06;18.40;66.80
37806;DHT22;25082;50.870;0.022;2023-12-28T05:26:31;18.40;66.70
37806;DHT22;25082;50.870;0.022;2023-12-28T05:28:57;18.40;66.70
37806;DHT22;25082;50.870;0.022;2023-12-28T05:31:23;18.40;66.70
37806;DHT22;25082;50.870;0.022;2023-12-28T05:33:49;18.40;66.80
37806;DHT22;25082;50.870;0.022;2023-12-28T05:36:14;18.40;66.80
37806;DHT22;25082;50.870;0.022;2023-12-28T05:38:40;18.40;66.80
37806;DHT22;25082;50.870;0.022;2023-12-28T05:41:06;18.40;66.80
37806;DHT22;25082;50.870;0.022;2023-12-28T05:43:32;18.40;66.80
37806;DHT22;25082;50.870;0.022;2023-12-28T05:45:57;18.30;66.80
37806;DHT22;25082;50.870;0.022;2023-12-28T05:48:23;18.30;66.80
37806;DHT22;25082;50.870;0.022;2023-12-28T05:50:49;18.30;66.80
37806;DHT22;25082;50.870;0.022;2023-12-28T05:53:15;18.30;66.80
37806;DHT22;25082;50.870;0.022;2023-12-28T05:55:41;18.40;66.90
37806;DHT22;25082;50.870;0.022;2023-12-28T05:58:07;18.30;66.80
37806;DHT22;25082;50.870;0.022;2023-12-28T06:00:32;18.30;66.80
37806;DHT22;25082;50.870;0.022;2023-12-28T06:02:58;18.30;66.90
37806;DHT22;25082;50.870;0.022;2023-12-28T06:05:24;18.30;66.90
37806;DHT22;25082;50.870;0.022;2023-12-28T06:07:49;18.30;66.90
37806;DHT22;25082;50.870;0.022;2023-12-28T06:10:15;18.30;66.90
37806;DHT22;25082;50.870;0.022;2023-12-28T06:12:41;18.30;66.90
37806;DHT22;25082;50.870;0.022;2023-12-28T06:15:07;18.30;66.90
37806;DHT22;25082;50.870;0.022;2023-12-28T06:17:33;18.30;67.00
37806;DHT22;25082;50.870;0.022;2023-12-28T06:19:59;18.30;66.90
37806;DHT22;25082;50.870;0.022;2023-12-28T06:22:24;18.30;66.90
37806;DHT22;25082;50.870;0.022;2023-12-28T06:24:56;18.30;66.90
37806;DHT22;25082;50.870;0.022;2023-12-28T06:27:22;18.30;66.90
37806;DHT22;25082;50.870;0.022;2023-12-28T06:29:51;18.30;66.90
37806;DHT22;25082;50.870;0.022;2023-12-28T06:32:17;18.20;66.90
37806;DHT22;25082;50.870;0.022;2023-12-28T06:34:42;18.30;67.00
37806;DHT22;25082;50.870;0.022;2023-12-28T06:37:08;18.30;67.00
37806;DHT22;25082;50.870;0.022;2023-12-28T06:39:34;18.30;67.10
37806;DHT22;25082;50.870;0.022;2023-12-28T06:42:00;18.30;67.10
37806;DHT22;25082;50.870;0.022;2023-12-28T06:44:25;18.30;67.10
37806;DHT22;25082;50.870;0.022;2023-12-28T06:46:51;18.20;67.00
37806;DHT22;25082;50.870;0.022;2023-12-28T06:49:17;18.20;67.10
37806;DHT22;25082;50.870;0.022;2023-12-28T06:51:42;18.20;67.00
37806;DHT22;25082;50.870;0.022;2023-12-28T06:54:11;18.30;67.10
37806;DHT22;25082;50.870;0.022;2023-12-28T06:56:36;18.20;67.10
37806;DHT22;25082;50.870;0.022;2023-12-28T06:59:02;18.20;67.10
37806;DHT22;25082;50.870;0.022;2023-12-28T07:01:28;18.20;67.10
37806;DHT22;25082;50.870;0.022;2023-12-28T07:03:54;18.20;67.10
37806;DHT22;25082;50.870;0.022;2023-12-28T07:06:19;18.20;67.10
37806;DHT22;25082;50.870;0.022;2023-12-28T07:08:45;18.30;67.20
37806;DHT22;25082;50.870;0.022;2023-12-28T07:11:11;18.20;67.20
37806;DHT22;25082;50.870;0.022;2023-12-28T07:13:37;18.20;67.10
37806;DHT22;25082;50.870;0.022;2023-12-28T07:16:03;18.30;67.10
37806;DHT22;25082;50.870;0.022;2023-12-28T07:18:29;18.30;67.10
37806;DHT22;25082;50.870;0.022;2023-12-28T07:20:55;18.30;67.00
37806;DHT22;25082;50.870;0.022;2023-12-28T07:23:21;18.30;67.00
37806;DHT22;25082;50.870;0.022;2023-12-28T07:25:47;18.30;66.90
37806;DHT22;25082;50.870;0.022;2023-12-28T07:28:12;18.30;66.90
37806;DHT22;25082;50.870;0.022;2023-12-28T07:30:38;18.30;66.80
37806;DHT22;25082;50.870;0.022;2023-12-28T07:33:04;18.30;66.80
37806;DHT22;25082;50.870;0.022;2023-12-28T07:35:30;18.40;66.80
37806;DHT22;25082;50.870;0.022;2023-12-28T07:37:56;18.40;66.90
37806;DHT22;25082;50.870;0.022;2023-12-28T07:40:21;18.40;66.90
37806;DHT22;25082;50.870;0.022;2023-12-28T07:42:47;18.40;66.90
37806;DHT22;25082;50.870;0.022;2023-12-28T07:45:13;18.40;66.90
37806;DHT22;25082;50.870;0.022;2023-12-28T07:47:39;18.40;66.90
37806;DHT22;25082;50.870;0.022;2023-12-28T07:50:05;18.40;67.00
37806;DHT22;25082;50.870;0.022;2023-12-28T07:52:31;18.40;67.10
37806;DHT22;25082;50.870;0.022;2023-12-28T07:54:56;18.40;67.00
37806;DHT22;25082;50.870;0.022;2023-12-28T07:57:24;18.40;67.10
37806;DHT22;25082;50.870;0.022;2023-12-28T07:59:50;18.40;67.10
37806;DHT22;25082;50.870;0.022;2023-12-28T08:02:15;18.40;67.10
37806;DHT22;25082;50.870;0.022;2023-12-28T08:04:41;18.40;67.20
37806;DHT22;25082;50.870;0.022;2023-12-28T08:07:07;18.50;67.20
37806;DHT22;25082;50.870;0.022;2023-12-28T08:09:34;18.50;67.20
37806;DHT22;25082;50.870;0.022;2023-12-28T08:12:00;18.50;67.20
37806;DHT22;25082;50.870;0.022;2023-12-28T08:14:28;18.50;67.20
37806;DHT22;25082;50.870;0.022;2023-12-28T08:16:53;18.50;67.20
37806;DHT22;25082;50.870;0.022;2023-12-28T08:19:19;18.50;67.20
37806;DHT22;25082;50.870;0.022;2023-12-28T08:21:45;18.50;67.20
37806;DHT22;25082;50.870;0.022;2023-12-28T08:24:10;18.50;67.20
37806;DHT22;25082;50.870;0.022;2023-12-28T08:26:43;18.50;67.20
37806;DHT22;25082;50.870;0.022;2023-12-28T08:29:32;18.50;67.20
37806;DHT22;25082;50.870;0.022;2023-12-28T08:32:24;18.50;67.20
37806;DHT22;25082;50.870;0.022;2023-12-28T08:35:26;18.50;67.20
37806;DHT22;25082;50.870;0.022;2023-12-28T08:38:12;18.60;67.20
37806;DHT22;25082;50.870;0.022;2023-12-28T08:40:38;18.60;67.20
37806;DHT22;25082;50.870;0.022;2023-12-28T08:43:25;18.60;67.20
37806;DHT22;25082;50.870;0.022;2023-12-28T08:46:21;18.60;67.20
37806;DHT22;25082;50.870;0.022;2023-12-28T08:49:26;18.60;67.20
37806;DHT22;25082;50.870;0.022;2023-12-28T08:52:33;18.60;67.20
37806;DHT22;25082;50.870;0.022;2023-12-28T08:55:39;18.60;67.20
37806;DHT22;25082;50.870;0.022;2023-12-28T08:58:38;18.60;67.20
37806;DHT22;25082;50.870;0.022;2023-12-28T09:01:24;18.60;67.20
37806;DHT22;25082;50.870;0.022;2023-12-28T09:04:14;18.60;67.20
37806;DHT22;25082;50.870;0.022;2023-12-28T09:07:23;18.60;67.20
37806;DHT22;25082;50.870;0.022;2023-12-28T09:10:28;18.60;67.20
37806;DHT22;25082;50.870;0.022;2023-12-28T09:13:40;18.60;67.10
37806;DHT22;25082;50.870;0.022;2023-12-28T09:16:26;18.70;67.10
37806;DHT22;25082;50.870;0.022;2023-12-28T09:18:53;18.70;67.20
37806;DHT22;25082;50.870;0.022;2023-12-28T09:21:19;18.70;67.10
37806;DHT22;25082;50.870;0.022;2023-12-28T09:23:46;18.70;67.20
37806;DHT22;25082;50.870;0.022;2023-12-28T09:26:12;18.70;67.20
37806;DHT22;25082;50.870;0.022;2023-12-28T09:28:38;18.70;67.20
37806;DHT22;25082;50.870;0.022;2023-12-28T09:33:48;18.70;67.10
37806;DHT22;25082;50.870;0.022;2023-12-28T09:36:14;18.70;67.10
37806;DHT22;25082;50.870;0.022;2023-12-28T09:38:41;18.70;67.20
37806;DHT22;25082;50.870;0.022;2023-12-28T09:41:15;18.80;67.20
37806;DHT22;25082;50.870;0.022;2023-12-28T09:43:49;18.80;67.20
37806;DHT22;25082;50.870;0.022;2023-12-28T09:46:18;18.80;67.10
37806;DHT22;25082;50.870;0.022;2023-12-28T09:48:44;18.80;67.10
37806;DHT22;25082;50.870;0.022;2023-12-28T09:51:10;18.80;67.10
37806;DHT22;25082;50.870;0.022;2023-12-28T09:53:36;18.80;67.00
37806;DHT22;25082;50.870;0.022;2023-12-28T09:56:04;18.80;67.00
37806;DHT22;25082;50.870;0.022;2023-12-28T09:58:33;18.80;66.90
37806;DHT22;25082;50.870;0.022;2023-12-28T10:01:01;18.80;66.90
37806;DHT22;25082;50.870;0.022;2023-12-28T10:03:27;18.80;66.90
37806;DHT22;25082;50.870;0.022;2023-12-28T10:05:53;18.80;66.80
37806;DHT22;25082;50.870;0.022;2023-12-28T10:08:19;18.90;66.90
37806;DHT22;25082;50.870;0.022;2023-12-28T10:10:45;18.90;66.90
37806;DHT22;25082;50.870;0.022;2023-12-28T10:13:18;18.90;66.90
37806;DHT22;25082;50.870;0.022;2023-12-28T10:15:44;18.90;66.90
37806;DHT22;25082;50.870;0.022;2023-12-28T10:18:09;18.90;66.90
37806;DHT22;25082;50.870;0.022;2023-12-28T10:20:37;18.90;66.90
37806;DHT22;25082;50.870;0.022;2023-12-28T10:23:03;18.90;66.90
37806;DHT22;25082;50.870;0.022;2023-12-28T10:25:31;18.90;66.90
37806;DHT22;25082;50.870;0.022;2023-12-28T10:27:57;18.90;66.90
37806;DHT22;25082;50.870;0.022;2023-12-28T10:30:24;18.90;66.80
37806;DHT22;25082;50.870;0.022;2023-12-28T10:32:50;19.00;66.80
37806;DHT22;25082;50.870;0.022;2023-12-28T10:35:16;19.00;66.80
37806;DHT22;25082;50.870;0.022;2023-12-28T10:37:42;19.00;66.80
37806;DHT22;25082;50.870;0.022;2023-12-28T10:40:12;19.00;66.80
37806;DHT22;25082;50.870;0.022;2023-12-28T10:42:51;19.00;66.80
37806;DHT22;25082;50.870;0.022;2023-12-28T10:45:18;19.00;66.80
37806;DHT22;25082;50.870;0.022;2023-12-28T10:50:27;19.00;66.80
37806;DHT22;25082;50.870;0.022;2023-12-28T10:53:00;19.00;66.80
37806;DHT22;25082;50.870;0.022;2023-12-28T10:55:53;19.10;66.90
37806;DHT22;25082;50.870;0.022;2023-12-28T10:58:40;19.10;66.80
37806;DHT22;25082;50.870;0.022;2023-12-28T11:01:12;19.10;66.80
37806;DHT22;25082;50.870;0.022;2023-12-28T11:03:46;19.10;66.80
37806;DHT22;25082;50.870;0.022;2023-12-28T11:06:14;19.10;66.80
37806;DHT22;25082;50.870;0.022;2023-12-28T11:08:43;19.10;66.80
37806;DHT22;25082;50.870;0.022;2023-12-28T11:11:13;19.10;66.80
37806;DHT22;25082;50.870;0.022;2023-12-28T11:13:40;19.10;66.80
37806;DHT22;25082;50.870;0.022;2023-12-28T11:16:06;19.10;66.80
37806;DHT22;25082;50.870;0.022;2023-12-28T11:18:32;19.10;66.80
37806;DHT22;25082;50.870;0.022;2023-12-28T11:20:58;19.10;66.80
37806;DHT22;25082;50.870;0.022;2023-12-28T11:23:24;19.10;66.80
37806;DHT22;25082;50.870;0.022;2023-12-28T11:25:51;19.10;66.80
37806;DHT22;25082;50.870;0.022;2023-12-28T11:28:17;19.10;66.80
37806;DHT22;25082;50.870;0.022;2023-12-28T11:30:43;19.10;66.80
37806;DHT22;25082;50.870;0.022;2023-12-28T11:33:10;19.10;66.80
37806;DHT22;25082;50.870;0.022;2023-12-28T11:35:39;19.10;66.80
37806;DHT22;25082;50.870;0.022;2023-12-28T11:38:07;19.10;66.90
37806;DHT22;25082;50.870;0.022;2023-12-28T11:40:47;19.10;66.80
37806;DHT22;25082;50.870;0.022;2023-12-28T11:43:20;19.10;66.90
37806;DHT22;25082;50.870;0.022;2023-12-28T11:45:51;19.10;66.80
37806;DHT22;25082;50.870;0.022;2023-12-28T11:48:27;19.10;66.80
37806;DHT22;25082;50.870;0.022;2023-12-28T11:51:00;19.20;66.70
37806;DHT22;25082;50.870;0.022;2023-12-28T11:53:26;19.20;66.60
37806;DHT22;25082;50.870;0.022;2023-12-28T11:56:00;19.20;66.50
37806;DHT22;25082;50.870;0.022;2023-12-28T11:58:30;19.20;66.50
37806;DHT22;25082;50.870;0.022;2023-12-28T12:00:56;19.30;66.40
37806;DHT22;25082;50.870;0.022;2023-12-28T12:03:25;19.30;66.30
37806;DHT22;25082;50.870;0.022;2023-12-28T12:05:51;19.30;66.30
37806;DHT22;25082;50.870;0.022;2023-12-28T12:08:17;19.40;66.20
37806;DHT22;25082;50.870;0.022;2023-12-28T12:10:43;19.50;66.20
37806;DHT22;25082;50.870;0.022;2023-12-28T12:13:09;19.50;66.10
37806;DHT22;25082;50.870;0.022;2023-12-28T12:15:35;19.50;66.00
37806;DHT22;25082;50.870;0.022;2023-12-28T12:18:01;19.60;66.00
37806;DHT22;25082;50.870;0.022;2023-12-28T12:20:28;19.70;66.10
37806;DHT22;25082;50.870;0.022;2023-12-28T12:22:58;19.80;66.00
37806;DHT22;25082;50.870;0.022;2023-12-28T12:25:24;19.90;65.80
37806;DHT22;25082;50.870;0.022;2023-12-28T12:27:50;19.90;65.20
37806;DHT22;25082;50.870;0.022;2023-12-28T12:30:16;20.00;64.70
37806;DHT22;25082;50.870;0.022;2023-12-28T12:32:42;20.30;64.40
37806;DHT22;25082;50.870;0.022;2023-12-28T12:35:12;20.70;63.80
37806;DHT22;25082;50.870;0.022;2023-12-28T12:37:40;21.20;62.80
37806;DHT22;25082;50.870;0.022;2023-12-28T12:40:06;21.50;61.50
37806;DHT22;25082;50.870;0.022;2023-12-28T12:42:33;21.70;60.80
37806;DHT22;25082;50.870;0.022;2023-12-28T12:44:59;21.60;60.50
37806;DHT22;25082;50.870;0.022;2023-12-28T12:47:25;21.40;61.10
37806;DHT22;25082;50.870;0.022;2023-12-28T12:49:55;21.20;61.00
37806;DHT22;25082;50.870;0.022;2023-12-28T12:52:21;20.90;61.60
37806;DHT22;25082;50.870;0.022;2023-12-28T12:54:56;20.70;62.10
37806;DHT22;25082;50.870;0.022;2023-12-28T12:57:24;20.50;62.50
37806;DHT22;25082;50.870;0.022;2023-12-28T12:59:49;20.40;63.00
37806;DHT22;25082;50.870;0.022;2023-12-28T13:02:16;20.20;63.30
37806;DHT22;25082;50.870;0.022;2023-12-28T13:04:42;20.10;63.60
37806;DHT22;25082;50.870;0.022;2023-12-28T13:07:08;20.10;64.00
37806;DHT22;25082;50.870;0.022;2023-12-28T13:09:34;20.00;64.40
37806;DHT22;25082;50.870;0.022;2023-12-28T13:12:01;19.90;64.30
37806;DHT22;25082;50.870;0.022;2023-12-28T13:14:28;19.90;64.50
37806;DHT22;25082;50.870;0.022;2023-12-28T13:16:55;20.00;64.50
37806;DHT22;25082;50.870;0.022;2023-12-28T13:19:21;20.00;64.40
37806;DHT22;25082;50.870;0.022;2023-12-28T13:21:47;20.00;64.30
37806;DHT22;25082;50.870;0.022;2023-12-28T13:24:12;20.00;64.30
37806;DHT22;25082;50.870;0.022;2023-12-28T13:26:38;20.00;64.40
37806;DHT22;25082;50.870;0.022;2023-12-28T13:29:04;20.10;64.30
37806;DHT22;25082;50.870;0.022;2023-12-28T13:31:30;20.10;64.30
37806;DHT22;25082;50.870;0.022;2023-12-28T13:33:55;20.20;64.10
37806;DHT22;25082;50.870;0.022;2023-12-28T13:36:21;20.20;63.90
37806;DHT22;25082;50.870;0.022;2023-12-28T13:38:47;20.20;64.00
37806;DHT22;25082;50.870;0.022;2023-12-28T13:41:13;20.10;64.10
37806;DHT22;25082;50.870;0.022;2023-12-28T13:43:39;20.00;64.20
37806;DHT22;25082;50.870;0.022;2023-12-28T13:46:05;19.90;64.40
37806;DHT22;25082;50.870;0.022;2023-12-28T13:48:31;19.80;64.70
37806;DHT22;25082;50.870;0.022;2023-12-28T13:50:56;19.80;64.80
37806;DHT22;25082;50.870;0.022;2023-12-28T13:53:22;19.70;64.90
37806;DHT22;25082;50.870;0.022;2023-12-28T13:55:48;19.70;65.10
37806;DHT22;25082;50.870;0.022;2023-12-28T13:58:14;19.70;65.20
37806;DHT22;25082;50.870;0.022;2023-12-28T14:00:40;19.70;65.20
37806;DHT22;25082;50.870;0.022;2023-12-28T14:03:06;19.60;65.30
37806;DHT22;25082;50.870;0.022;2023-12-28T14:05:31;19.60;65.90
37806;DHT22;25082;50.870;0.022;2023-12-28T14:07:57;19.60;65.40
37806;DHT22;25082;50.870;0.022;2023-12-28T14:10:23;19.60;65.50
37806;DHT22;25082;50.870;0.022;2023-12-28T14:12:49;19.60;65.50
37806;DHT22;25082;50.870;0.022;2023-12-28T14:15:15;19.60;65.60
37806;DHT22;25082;50.870;0.022;2023-12-28T14:18:02;19.50;66.10
37806;DHT22;25082;50.870;0.022;2023-12-28T14:20:50;19.50;65.50
37806;DHT22;25082;50.870;0.022;2023-12-28T14:23:17;19.60;65.60
37806;DHT22;25082;50.870;0.022;2023-12-28T14:26:11;19.50;65.50
37806;DHT22;25082;50.870;0.022;2023-12-28T14:28:37;19.50;65.60
37806;DHT22;25082;50.870;0.022;2023-12-28T14:31:03;19.50;65.60
37806;DHT22;25082;50.870;0.022;2023-12-28T14:33:29;19.50;65.60
37806;DHT22;25082;50.870;0.022;2023-12-28T14:35:57;19.50;65.70
37806;DHT22;25082;50.870;0.022;2023-12-28T14:38:23;19.50;66.20
37806;DHT22;25082;50.870;0.022;2023-12-28T14:40:49;19.50;65.70
37806;DHT22;25082;50.870;0.022;2023-12-28T14:43:17;19.50;65.70
37806;DHT22;25082;50.870;0.022;2023-12-28T14:45:43;19.60;65.70
37806;DHT22;25082;50.870;0.022;2023-12-28T14:48:10;19.50;65.70
37806;DHT22;25082;50.870;0.022;2023-12-28T14:50:35;19.50;65.70
37806;DHT22;25082;50.870;0.022;2023-12-28T14:53:01;19.50;65.70
37806;DHT22;25082;50.870;0.022;2023-12-28T14:55:28;19.50;65.70
37806;DHT22;25082;50.870;0.022;2023-12-28T14:57:54;19.50;65.70
37806;DHT22;25082;50.870;0.022;2023-12-28T15:00:19;19.50;65.70
37806;DHT22;25082;50.870;0.022;2023-12-28T15:02:46;19.50;65.70
37806;DHT22;25082;50.870;0.022;2023-12-28T15:05:11;19.50;65.70
37806;DHT22;25082;50.870;0.022;2023-12-28T15:07:38;19.50;65.70
37806;DHT22;25082;50.870;0.022;2023-12-28T15:10:05;19.50;65.70
37806;DHT22;25082;50.870;0.022;2023-12-28T15:12:32;19.50;65.70
37806;DHT22;25082;50.870;0.022;2023-12-28T15:14:58;19.50;65.70
37806;DHT22;25082;50.870;0.022;2023-12-28T15:17:24;19.50;65.70
37806;DHT22;25082;50.870;0.022;2023-12-28T15:19:51;19.50;65.70
37806;DHT22;25082;50.870;0.022;2023-12-28T15:22:16;19.50;65.70
37806;DHT22;25082;50.870;0.022;2023-12-28T15:24:42;19.50;65.70
37806;DHT22;25082;50.870;0.022;2023-12-28T15:27:08;19.50;65.70
37806;DHT22;25082;50.870;0.022;2023-12-28T15:29:34;19.50;65.70
37806;DHT22;25082;50.870;0.022;2023-12-28T15:32:00;19.50;65.80
37806;DHT22;25082;50.870;0.022;2023-12-28T15:34:26;19.50;65.80
37806;DHT22;25082;50.870;0.022;2023-12-28T15:36:52;19.50;65.80
37806;DHT22;25082;50.870;0.022;2023-12-28T15:39:17;19.50;65.80
37806;DHT22;25082;50.870;0.022;2023-12-28T15:41:43;19.50;65.80